x

Half Moon Bay - 24nm Ssw Of San Francisco, Ca (46012) Wave Buoy

7:50pm - Sun 3rd May 2015 All times are PDT. -7 hours from GMT.

  • Sig Wave height 7.2ft
  • Swell Direction
  • Peak Period 10s
  • Average Period 8s
  • Wind
    7mph, 9mph gusts
  • Sea Temp 54°f
  • Air Temp 53°f
  • Sea Pressure 1012.5mb
  • Half Moon Bay - 24nm Ssw Of San Francisco, Ca
  • Half Moon Bay - 24nm Ssw Of San Francisco, Ca

More Historic Weather Station data

Upgrade to MSW Pro to gain access to the past 30 days of data for over 8000 Wavebouys and Weather Stations around the globe.

Join Pro

Comparision Forecast

View Surf forecast
   
Sun 05/03 7:50pm 7ft 10s 8s 7 9 mph 1012.5mb 54f 53f
6:50pm 7.5ft 10s 8s 7
mph
1012.5mb 54f 53f
5:50pm 7ft 9s 8s 4 7 mph 1012.7mb 54f 53f
4:50pm 8ft 10s 8s 4 7 mph 1013mb 54f 52f
3:50pm 7.5ft 9s 8s 7
mph
1013.3mb 54f 52f
2:50pm 7.5ft 9s 8s 7
mph
1013.7mb 53f 52f
1:50pm 8ft 11s 9s 7 9 mph 1013.7mb 54f 52f
12:50pm 7.5ft 9s 8s 7 9 mph 1013.7mb 53f 51f
11:50am 7.5ft 10s 8s 7
mph
1013.5mb 53f 51f
10:50am 7.5ft 11s 9s 7 9 mph 1013.1mb 53f 51f
9:50am 7.5ft 10s 8s 7 9 mph 1012.5mb 53f 50f
8:50am 7ft 9s 8s 4 7 mph 1012.1mb 53f 50f
7:50am 7.5ft 9s 8s 2 4 mph 1011.8mb 53f 50f
6:50am 7ft 10s 8s 2 4 mph 1011.3mb 53f 50f
5:50am 7ft 10s 8s 2 7 mph 1011mb 53f 51f
4:50am 6.5ft 9s 8s 2 4 mph 1011.1mb 53f 51f
3:50am 6.5ft 11s 8s 4 9 mph 1011.2mb 53f 51f
2:50am 6.5ft 9s 8s 2 7 mph 1011.3mb 54f 51f
1:50am 6ft 10s 8s 7
mph
1011.6mb 54f 51f
12:50am 6ft 11s 8s 2 4 mph 1011.9mb 54f 52f
Sat 05/02 11:50pm 6.5ft 11s 8s 4 9 mph 1012mb 53f 52f
10:50pm 6.5ft 11s 8s 4 7 mph 1012.1mb 53f 52f
9:50pm 8ft 10s 8s 7 11 mph 1011.9mb 53f 52f
8:50pm 7ft 9s 8s 4 9 mph 1011.3mb 53f 52f
7:50pm 7ft 10s 8s 4 7 mph 1010.9mb 53f 52f
6:50pm 6ft 10s 7s 7 11 mph 1010.8mb 53f 52f
5:50pm 6ft 9s 7s 9 11 mph 1011mb 54f 53f
4:50pm 6.5ft 8s 7s 7 9 mph 1011mb 54f 53f
3:50pm 7ft 9s 8s 9 11 mph 1011.5mb 54f 53f
2:50pm 7ft 10s 8s 9 11 mph 1011.7mb 54f 53f
1:50pm 7ft 10s 8s 9 11 mph 1012.1mb 53f 53f
12:50pm 7ft 10s 8s 9 11 mph 1012.3mb 53f 53f
11:50am 6.5ft 9s 8s 9 11 mph 1012.5mb 53f 52f
10:50am 6ft 10s 8s 7 9 mph 1012.3mb 53f 52f
9:50am 6ft 10s 8s 7 9 mph 1012mb 53f 52f
8:50am 7ft 10s 8s 4 9 mph 1011.9mb 53f 52f
7:50am 7ft 10s 8s 7 9 mph 1011.7mb 53f 52f
6:50am 7.5ft 10s 8s 9 11 mph 1011.5mb 53f 52f
5:50am 6.5ft 10s 8s 9 11 mph 1011.4mb 53f 52f
4:50am 7ft 10s 8s 9 11 mph 1011.4mb 53f 53f
3:50am 7ft 10s 8s 9 13 mph 1011.6mb 53f 52f
2:50am 7ft 10s 8s 9 11 mph 1011.9mb 53f 52f
1:50am 7ft 9s 8s 9 11 mph 1012.3mb 53f 52f
12:50am 7.5ft 10s 8s 9 11 mph 1012.6mb 53f 52f
Fri 05/01 11:50pm 7ft 10s 8s 7 9 mph 1012.7mb 53f 53f
10:50pm 7ft 10s 8s 9 11 mph 1012.7mb 53f 53f
9:50pm 7ft 10s 8s 7 9 mph 1012.6mb 53f 53f
8:50pm 7.5ft 10s 8s 7 9 mph 1011.9mb 53f 53f
7:50pm 7.5ft 10s 8s 7 9 mph 1011.6mb 53f 53f
6:50pm 7.5ft 10s 8s 7 9 mph 1011.4mb 53f 53f
5:50pm 7ft 10s 7s 9 11 mph 1011.5mb 53f 53f
4:50pm 8ft 11s 8s 9 11 mph 1011.6mb 53f 54f
3:50pm 9ft 11s 8s 7 9 mph 1011.9mb 53f 54f
2:50pm 8ft 11s 8s 7 9 mph 1012.4mb 53f 54f
1:50pm 7.5ft 10s 8s 9 11 mph 1012.5mb 53f 55f
12:50pm 7ft 10s 7s 9 11 mph 1012.7mb 53f 54f
11:50am 9ft 11s 8s 11 16 mph 1012.7mb 53f 54f
10:50am 8ft 11s 8s 13 16 mph 1012.4mb 53f 54f
9:50am 9ft 11s 8s 7 9 mph 1012mb 53f 53f
8:50am 7.5ft 11s 8s 2
mph
1011.5mb 52f 53f
7:50am 8ft 11s 8s 4
mph
1010.8mb 52f 53f
6:50am 8ft 11s 8s 2 4 mph 1010mb 52f 52f
5:50am 10ft 11s 8s 2
mph
1009.5mb 52f 52f
4:50am 9ft 10s 8s 7 9 mph 1009.2mb 52f 52f
3:50am 10ft 10s 8s 4 9 mph 1009.5mb 52f 52f
2:50am 8.5ft 10s 8s 4 7 mph 1009.4mb 52f 52f
1:50am 9ft 11s 8s 7 9 mph 1009.5mb 52f 53f
12:50am 8ft 11s 8s 4 7 mph 1009.9mb 52f 53f
Thu 04/30 11:50pm 9ft 10s 8s 7
mph
1010mb 52f 53f
10:50pm 8.5ft 11s 8s 11 13 mph 1009.5mb 52f 53f
9:50pm 8ft 11s 8s 9 11 mph 1009.4mb 52f 53f
8:50pm 9ft 11s 8s 9
mph
1009.1mb 52f 53f
7:50pm 9ft 10s 8s 9 13 mph 1008.5mb 52f 54f
6:50pm 9.5ft 12s 8s 11 13 mph 1008.4mb 52f 54f
5:50pm 9.5ft 11s 8s 13 18 mph 1008.7mb 53f 54f
4:50pm 10ft 12s 8s 13 18 mph 1008.9mb 52f 54f
3:50pm 10.5ft 11s 8s 16 20 mph 1009.2mb 52f 54f
2:50pm 10.5ft 11s 8s 16 20 mph 1009.7mb 52f 53f
1:50pm 10ft 11s 8s 16 20 mph 1010mb 52f 53f
12:50pm 10.5ft 10s 8s 16 18 mph 1010.5mb 52f 53f
11:50am 11ft 12s 8s 16 20 mph 1010.8mb 52f 53f
10:50am 11ft 11s 9s 16 20 mph 1010.8mb 52f 53f
9:50am 11ft 12s 8s 16 18 mph 1010.7mb 52f 53f
8:50am 12ft 12s 8s 16 18 mph 1010.6mb 52f 52f
7:50am 13ft 11s 9s 13 18 mph 1010.5mb 51f 52f
6:50am 12ft 11s 8s 16 18 mph 1010.3mb 51f 52f
5:50am 12.5ft 12s 8s 16 20 mph 1010.3mb 51f 51f
4:50am 13ft 10s 8s 16 18 mph 1010.4mb 51f 51f